createdAt,value
2022-11-18T00:02:19.896Z,63.31
2022-11-18T00:04:47.040Z,63.45
2022-11-18T00:07:14.234Z,63.45
2022-11-18T00:09:41.500Z,63.41
2022-11-18T00:12:08.632Z,63.17
2022-11-18T00:14:35.856Z,63.21
2022-11-18T00:17:06.038Z,63.37
2022-11-18T00:19:37.345Z,63.69
2022-11-18T00:22:11.066Z,63.47
2022-11-18T00:24:38.277Z,63.31
2022-11-18T00:27:05.678Z,63.29
2022-11-18T00:29:32.891Z,63.42
2022-11-18T00:32:00.056Z,63.82
2022-11-18T00:34:27.651Z,63.40
2022-11-18T00:36:54.958Z,63.67
2022-11-18T00:39:22.174Z,63.62
2022-11-18T00:41:50.010Z,63.48
2022-11-18T00:44:17.470Z,63.60
2022-11-18T00:46:44.676Z,63.36
2022-11-18T00:49:11.831Z,63.34
2022-11-18T00:51:38.995Z,63.28
2022-11-18T00:54:06.692Z,63.39
2022-11-18T00:56:34.020Z,63.58
2022-11-18T00:59:01.176Z,63.19
2022-11-18T01:01:28.746Z,63.11
2022-11-18T01:03:56.314Z,63.40
2022-11-18T01:06:23.755Z,63.34
2022-11-18T01:08:51.659Z,63.35
2022-11-18T01:11:18.923Z,63.88
2022-11-18T01:13:48.792Z,63.70
2022-11-18T01:16:24.917Z,63.55
2022-11-18T01:18:52.699Z,63.55
2022-11-18T01:21:20.425Z,63.68
2022-11-18T01:23:48.438Z,63.31
2022-11-18T01:26:17.819Z,63.23
2022-11-18T01:28:45.732Z,63.17
2022-11-18T01:31:19.331Z,63.08
2022-11-18T01:33:47.293Z,62.85
2022-11-18T01:36:23.792Z,62.98
2022-11-18T01:38:52.457Z,62.88
2022-11-18T01:41:23.268Z,62.96
2022-11-18T01:44:04.027Z,62.90
2022-11-18T01:46:34.279Z,62.83
2022-11-18T01:49:13.672Z,62.80
2022-11-18T01:51:58.190Z,62.61
2022-11-18T01:54:31.429Z,62.52
2022-11-18T01:57:06.561Z,62.57
2022-11-18T01:59:41.543Z,62.43
2022-11-18T02:02:14.304Z,62.31
2022-11-18T02:04:47.450Z,62.85
2022-11-18T02:07:16.165Z,62.85
2022-11-18T02:09:44.394Z,62.28
2022-11-18T02:12:13.426Z,62.20
2022-11-18T02:14:46.748Z,62.18
2022-11-18T02:18:14.663Z,62.29
2022-11-18T02:20:46.160Z,62.27
2022-11-18T02:23:51.185Z,62.05
2022-11-18T02:26:44.623Z,62.15
2022-11-18T02:29:26.959Z,62.65
2022-11-18T02:32:13.307Z,62.42
2022-11-18T02:34:54.505Z,62.35
2022-11-18T02:37:56.191Z,62.12
2022-11-18T02:40:31.981Z,62.22
2022-11-18T02:43:08.268Z,62.66
2022-11-18T02:45:38.358Z,62.35
2022-11-18T02:48:12.346Z,62.41
2022-11-18T02:50:44.934Z,62.26
2022-11-18T02:53:19.017Z,62.39
2022-11-18T02:55:48.383Z,62.61
2022-11-18T02:58:19.331Z,62.37
2022-11-18T03:00:58.291Z,62.20
2022-11-18T03:03:35.284Z,62.42
2022-11-18T03:06:41.810Z,62.15
2022-11-18T03:09:31.470Z,62.00
2022-11-18T03:12:41.984Z,62.22
2022-11-18T03:15:50.627Z,62.37
2022-11-18T03:18:46.344Z,62.04
2022-11-18T03:21:32.074Z,62.13
2022-11-18T03:24:34.075Z,62.08
2022-11-18T03:27:15.425Z,62.14
2022-11-18T03:29:52.617Z,62.12
2022-11-18T03:32:33.201Z,62.06
2022-11-18T03:35:07.610Z,62.17
2022-11-18T03:37:38.527Z,62.04
2022-11-18T03:40:21.125Z,62.02
2022-11-18T03:43:00.969Z,61.70
2022-11-18T03:45:52.460Z,61.91
2022-11-18T03:48:30.088Z,62.06
2022-11-18T03:51:30.653Z,62.09
2022-11-18T03:54:10.486Z,62.04
2022-11-18T03:56:54.382Z,61.98
2022-11-18T03:59:31.627Z,61.88
2022-11-18T04:02:14.035Z,62.32
2022-11-18T04:04:44.121Z,62.35
2022-11-18T04:07:31.897Z,62.39
2022-11-18T04:10:14.523Z,62.36
2022-11-18T04:12:50.669Z,62.05
2022-11-18T04:15:19.051Z,62.11
2022-11-18T04:17:46.321Z,62.31
2022-11-18T04:20:21.480Z,62.12
2022-11-18T04:22:49.307Z,62.24
2022-11-18T04:25:16.898Z,62.17
2022-11-18T04:27:44.383Z,62.39
2022-11-18T04:30:12.475Z,62.02
2022-11-18T04:32:39.731Z,62.09
2022-11-18T04:35:07.126Z,62.32
2022-11-18T04:37:34.659Z,62.42
2022-11-18T04:40:01.929Z,62.41
2022-11-18T04:42:29.223Z,62.30
2022-11-18T04:44:56.558Z,62.44
2022-11-18T04:47:23.820Z,61.96
2022-11-18T04:49:51.100Z,62.33
2022-11-18T04:52:18.754Z,62.33
2022-11-18T04:54:46.296Z,62.40
2022-11-18T04:57:14.233Z,62.31
2022-11-18T04:59:41.693Z,62.22
2022-11-18T05:02:09.308Z,62.14
2022-11-18T05:04:39.283Z,62.01
2022-11-18T05:07:07.030Z,62.20
2022-11-18T05:09:34.441Z,62.21
2022-11-18T05:12:02.030Z,62.17
2022-11-18T05:14:30.791Z,62.44
2022-11-18T05:17:02.931Z,62.38
2022-11-18T05:19:30.245Z,62.16
2022-11-18T05:21:58.223Z,62.25
2022-11-18T05:24:25.592Z,62.47
2022-11-18T05:26:54.596Z,62.46
2022-11-18T05:29:23.062Z,62.54
2022-11-18T05:31:50.758Z,63.07
2022-11-18T05:34:19.097Z,62.60
2022-11-18T05:36:46.460Z,62.49
2022-11-18T05:39:13.741Z,62.66
2022-11-18T05:41:41.059Z,62.50
2022-11-18T05:44:08.254Z,62.70
2022-11-18T05:46:35.459Z,62.37
2022-11-18T05:49:02.686Z,62.44
2022-11-18T05:51:29.985Z,62.37
2022-11-18T05:53:58.699Z,62.17
2022-11-18T05:56:46.209Z,62.37
2022-11-18T05:59:14.558Z,62.21
2022-11-18T06:01:50.938Z,62.43
2022-11-18T06:04:33.453Z,62.52
2022-11-18T06:07:18.777Z,62.70
2022-11-18T06:09:52.341Z,62.48
2022-11-18T06:12:27.588Z,62.66
2022-11-18T06:15:16.172Z,62.38
2022-11-18T06:18:04.556Z,62.70
2022-11-18T06:20:36.219Z,62.73
2022-11-18T06:23:03.535Z,62.61
2022-11-18T06:25:31.200Z,62.75
2022-11-18T06:28:02.405Z,62.88
2022-11-18T06:30:30.109Z,63.08
2022-11-18T06:32:57.311Z,62.91
2022-11-18T06:35:24.609Z,62.96
2022-11-18T06:37:51.746Z,63.20
2022-11-18T06:40:19.105Z,63.12
2022-11-18T06:42:46.449Z,63.65
2022-11-18T06:45:14.057Z,63.13
2022-11-18T06:47:41.448Z,63.16
2022-11-18T06:50:09.367Z,63.32
2022-11-18T06:52:36.567Z,63.35
2022-11-18T06:55:04.224Z,63.36
2022-11-18T06:57:31.505Z,63.15
2022-11-18T07:00:01.967Z,63.20
2022-11-18T07:02:29.667Z,63.47
2022-11-18T07:04:56.909Z,63.32
2022-11-18T07:07:24.290Z,63.38
2022-11-18T07:09:51.456Z,63.72
2022-11-18T07:12:18.906Z,63.54
2022-11-18T07:14:46.412Z,63.51
2022-11-18T07:17:13.776Z,63.72
2022-11-18T07:19:40.969Z,63.58
2022-11-18T07:22:08.186Z,63.61
2022-11-18T07:24:35.456Z,63.76
2022-11-18T07:27:02.617Z,63.91
2022-11-18T07:29:29.850Z,63.79
2022-11-18T07:31:56.992Z,63.85
2022-11-18T07:34:24.302Z,63.86
2022-11-18T07:36:51.736Z,64.10
2022-11-18T07:39:19.313Z,64.43
2022-11-18T07:41:46.738Z,63.93
2022-11-18T07:44:14.253Z,64.32
2022-11-18T07:46:41.720Z,64.34
2022-11-18T07:49:11.222Z,64.42
2022-11-18T07:51:40.423Z,64.04
2022-11-18T07:54:13.720Z,64.29
2022-11-18T07:56:41.106Z,64.45
2022-11-18T07:59:08.932Z,64.60
2022-11-18T08:01:36.632Z,64.76
2022-11-18T08:04:10.414Z,64.49
2022-11-18T08:06:38.901Z,64.74
2022-11-18T08:09:08.139Z,65.02
2022-11-18T08:11:36.470Z,65.01
2022-11-18T08:14:04.317Z,65.28
2022-11-18T08:16:31.460Z,65.37
2022-11-18T08:18:59.865Z,65.31
2022-11-18T08:21:27.148Z,65.58
2022-11-18T08:23:57.883Z,65.43
2022-11-18T08:26:27.564Z,65.44
2022-11-18T08:28:55.576Z,65.52
2022-11-18T08:31:26.957Z,65.32
2022-11-18T08:34:06.699Z,65.61
2022-11-18T08:36:37.786Z,65.25
2022-11-18T08:39:11.034Z,65.09
2022-11-18T08:41:41.957Z,64.89
2022-11-18T08:44:14.720Z,64.66
2022-11-18T08:46:43.906Z,64.59
2022-11-18T08:49:11.782Z,64.42
2022-11-18T08:51:39.277Z,64.25
2022-11-18T08:54:06.592Z,64.14
2022-11-18T08:56:36.931Z,64.12
2022-11-18T08:59:04.302Z,64.17
2022-11-18T09:01:31.631Z,64.18
2022-11-18T09:03:58.932Z,64.03
2022-11-18T09:06:26.360Z,64.14
2022-11-18T09:08:54.805Z,64.08
2022-11-18T09:11:25.380Z,64.15
2022-11-18T09:16:46.529Z,64.37
2022-11-18T09:19:46.687Z,64.39
2022-11-18T09:22:05.995Z,64.52
2022-11-18T09:24:34.106Z,64.30
2022-11-18T09:27:09.587Z,64.32
2022-11-18T09:29:39.619Z,64.12
2022-11-18T09:32:06.839Z,64.19
2022-11-18T09:34:35.162Z,63.91
2022-11-18T09:37:05.158Z,63.80
2022-11-18T09:39:35.599Z,63.65
2022-11-18T09:42:31.458Z,63.77
2022-11-18T09:45:25.191Z,63.59
2022-11-18T09:48:07.869Z,63.26
2022-11-18T09:50:53.709Z,62.92
2022-11-18T09:53:26.344Z,62.89
2022-11-18T09:55:55.930Z,62.93
2022-11-18T09:58:35.010Z,62.57
2022-11-18T10:01:03.919Z,62.72
2022-11-18T10:03:33.652Z,62.50
2022-11-18T10:06:22.014Z,62.38
2022-11-18T10:09:14.915Z,62.59
2022-11-18T10:12:16.844Z,62.71
2022-11-18T10:15:14.791Z,63.14
2022-11-18T10:17:44.813Z,63.52
2022-11-18T10:20:57.880Z,63.81
2022-11-18T10:23:42.053Z,63.94
2022-11-18T10:26:09.303Z,63.72
2022-11-18T10:28:36.783Z,63.47
2022-11-18T10:31:12.102Z,63.45
2022-11-18T10:33:39.938Z,63.30
2022-11-18T10:36:29.382Z,62.74
2022-11-18T10:39:15.385Z,62.39
2022-11-18T10:41:57.181Z,62.17
2022-11-18T10:44:39.866Z,62.37
2022-11-18T10:47:31.536Z,62.35
2022-11-18T10:50:30.975Z,62.07
2022-11-18T10:52:58.514Z,62.25
2022-11-18T10:55:28.618Z,62.37
2022-11-18T10:58:11.120Z,61.62
2022-11-18T11:00:40.439Z,61.38
2022-11-18T11:03:20.864Z,61.13
2022-11-18T11:05:48.097Z,60.73
2022-11-18T11:08:39.565Z,60.06
2022-11-18T11:11:22.268Z,59.51
2022-11-18T11:13:49.548Z,59.41
2022-11-18T11:16:26.159Z,58.84
2022-11-18T11:19:02.370Z,58.88
2022-11-18T11:21:30.562Z,58.89
2022-11-18T11:23:58.470Z,58.60
2022-11-18T11:29:56.873Z,56.39
2022-11-18T11:32:36.000Z,56.22
2022-11-18T11:35:19.213Z,55.69
2022-11-18T11:38:00.416Z,55.62
2022-11-18T11:41:09.615Z,54.92
2022-11-18T11:44:40.144Z,53.47
2022-11-18T11:47:25.133Z,50.52
2022-11-18T11:50:21.119Z,49.51
2022-11-18T11:53:03.332Z,49.46
2022-11-18T11:56:00.110Z,48.64
2022-11-18T11:59:00.181Z,48.06
2022-11-18T12:02:03.931Z,46.86
2022-11-18T12:05:11.213Z,47.24
2022-11-18T12:07:51.446Z,47.03
2022-11-18T12:10:35.684Z,46.90
2022-11-18T12:13:24.715Z,46.59
2022-11-18T12:16:35.374Z,46.79
2022-11-18T12:19:15.239Z,47.58
2022-11-18T12:21:47.761Z,46.90
2022-11-18T12:24:31.235Z,47.19
2022-11-18T12:27:48.904Z,47.47
2022-11-18T12:30:19.640Z,47.05
2022-11-18T12:32:47.209Z,47.09
2022-11-18T12:35:35.848Z,46.60
2022-11-18T12:38:05.379Z,46.63
2022-11-18T12:40:47.241Z,46.33
2022-11-18T12:43:29.947Z,46.02
2022-11-18T12:45:58.543Z,46.10
2022-11-18T12:48:42.064Z,45.46
2022-11-18T12:51:16.465Z,45.18
2022-11-18T12:53:53.737Z,44.62
2022-11-18T12:56:38.992Z,44.84
2022-11-18T12:59:13.757Z,45.07
2022-11-18T13:01:41.021Z,44.90
2022-11-18T13:04:17.492Z,43.82
2022-11-18T13:06:47.160Z,43.36
2022-11-18T13:09:23.392Z,43.06
2022-11-18T13:12:07.254Z,42.65
2022-11-18T13:14:43.158Z,42.17
2022-11-18T13:17:41.425Z,41.75
2022-11-18T13:20:29.218Z,40.84
2022-11-18T13:23:01.188Z,40.37
2022-11-18T13:25:32.775Z,40.47
2022-11-18T13:28:50.599Z,39.59
2022-11-18T13:31:42.817Z,39.84
2022-11-18T13:34:31.874Z,40.06
2022-11-18T13:37:00.989Z,40.49
2022-11-18T13:39:33.224Z,40.28
2022-11-18T13:42:01.762Z,39.83
2022-11-18T13:44:39.989Z,39.94
2022-11-18T13:47:22.719Z,39.29
2022-11-18T13:50:18.958Z,39.25
2022-11-18T13:53:14.122Z,39.71
2022-11-18T13:56:07.312Z,38.38
2022-11-18T14:01:39.166Z,39.72
2022-11-18T14:04:19.853Z,39.71
2022-11-18T14:06:47.723Z,40.14
2022-11-18T14:09:25.895Z,40.23
2022-11-18T14:12:23.152Z,40.22
2022-11-18T14:14:50.608Z,40.56
2022-11-18T14:17:24.833Z,40.86
2022-11-18T14:19:58.896Z,41.09
2022-11-18T14:22:28.336Z,41.45
2022-11-18T14:25:01.760Z,42.06
2022-11-18T14:27:51.715Z,42.50
2022-11-18T14:30:31.235Z,42.58
2022-11-18T14:33:21.429Z,43.01
2022-11-18T14:35:50.402Z,42.13
2022-11-18T14:41:22.678Z,41.25
2022-11-18T14:43:49.884Z,40.72
2022-11-18T14:46:19.765Z,40.81
2022-11-18T14:48:47.284Z,39.93
2022-11-18T14:51:16.384Z,39.37
2022-11-18T14:53:44.462Z,39.27
2022-11-18T14:56:29.385Z,39.74
2022-11-18T14:58:57.752Z,39.69
2022-11-18T15:01:30.354Z,40.19
2022-11-18T15:03:58.539Z,40.10
2022-11-18T15:06:25.967Z,40.22
2022-11-18T15:08:54.362Z,40.22
2022-11-18T15:11:21.696Z,40.19
2022-11-18T15:13:49.589Z,39.54
2022-11-18T15:16:21.961Z,40.03
2022-11-18T15:18:53.281Z,39.65
2022-11-18T15:21:21.892Z,39.81
2022-11-18T15:23:49.424Z,40.32
2022-11-18T15:26:23.321Z,40.75
2022-11-18T15:28:53.820Z,40.52
2022-11-18T15:31:23.035Z,40.44
2022-11-18T15:33:51.255Z,40.88
2022-11-18T15:36:25.551Z,41.20
2022-11-18T15:38:54.773Z,40.04
2022-11-18T15:41:24.325Z,39.72
2022-11-18T15:43:52.826Z,40.18
2022-11-18T15:46:22.889Z,40.59
2022-11-18T15:48:55.677Z,40.99
2022-11-18T15:51:25.462Z,41.23
2022-11-18T15:53:52.964Z,41.47
2022-11-18T15:56:22.884Z,42.19
2022-11-18T15:59:04.732Z,42.66
2022-11-18T16:01:38.290Z,41.87
2022-11-18T16:04:08.875Z,41.82
2022-11-18T16:06:37.217Z,42.58
2022-11-18T16:09:06.877Z,42.50
2022-11-18T16:11:34.308Z,42.70
2022-11-18T16:14:07.623Z,42.95
2022-11-18T16:16:36.857Z,43.30
2022-11-18T16:19:08.003Z,44.07
2022-11-18T16:21:39.229Z,43.69
2022-11-18T16:24:11.307Z,43.49
2022-11-18T16:26:39.000Z,43.78
2022-11-18T16:29:07.603Z,44.18
2022-11-18T16:31:35.054Z,44.49
2022-11-18T16:34:14.766Z,43.73
2022-11-18T16:36:49.037Z,43.87
2022-11-18T16:39:21.687Z,44.13
2022-11-18T16:41:51.987Z,44.09
2022-11-18T16:44:19.707Z,44.07
2022-11-18T16:46:50.551Z,44.13
2022-11-18T16:49:21.163Z,44.85
2022-11-18T16:51:52.442Z,45.08
2022-11-18T16:54:28.733Z,45.31
2022-11-18T16:56:58.794Z,45.61
2022-11-18T16:59:29.009Z,46.38
2022-11-18T17:01:58.785Z,46.63
2022-11-18T17:04:28.731Z,47.02
2022-11-18T17:06:56.687Z,46.47
2022-11-18T17:09:25.422Z,45.83
2022-11-18T17:11:54.727Z,46.39
2022-11-18T17:14:23.263Z,47.26
2022-11-18T17:16:52.358Z,47.50
2022-11-18T17:19:22.286Z,47.54
2022-11-18T17:21:51.604Z,47.99
2022-11-18T17:24:22.632Z,48.17
2022-11-18T17:26:51.591Z,48.19
2022-11-18T17:29:19.160Z,48.25
2022-11-18T17:31:46.743Z,48.44
2022-11-18T17:34:15.343Z,48.27
2022-11-18T17:36:43.280Z,48.59
2022-11-18T17:39:12.824Z,48.96
2022-11-18T17:41:40.536Z,49.09
2022-11-18T17:44:10.535Z,49.40
2022-11-18T17:46:38.646Z,49.17
2022-11-18T17:49:13.083Z,49.32
2022-11-18T17:51:41.061Z,49.05
2022-11-18T17:54:09.793Z,49.40
2022-11-18T17:56:37.263Z,49.67
2022-11-18T17:59:05.021Z,50.01
2022-11-18T18:01:32.573Z,49.44
2022-11-18T18:03:59.904Z,49.69
2022-11-18T18:06:27.381Z,49.73
2022-11-18T18:08:59.195Z,49.50
2022-11-18T18:11:27.922Z,49.47
2022-11-18T18:13:55.984Z,49.47
2022-11-18T18:16:24.101Z,49.82
2022-11-18T18:18:51.665Z,49.60
2022-11-18T18:21:19.367Z,50.20
2022-11-18T18:23:47.350Z,49.88
2022-11-18T18:26:15.109Z,49.74
2022-11-18T18:28:42.946Z,50.05
2022-11-18T18:31:14.025Z,49.66
2022-11-18T18:33:42.265Z,50.15
2022-11-18T18:36:14.837Z,50.38
2022-11-18T18:38:43.309Z,50.34
2022-11-18T18:41:17.872Z,50.39
2022-11-18T18:43:46.269Z,50.94
2022-11-18T18:46:21.684Z,50.77
2022-11-18T18:48:49.012Z,50.59
2022-11-18T18:51:16.490Z,50.79
2022-11-18T18:53:44.439Z,50.66
2022-11-18T18:56:14.106Z,51.02
2022-11-18T18:58:41.523Z,50.90
2022-11-18T19:01:12.305Z,50.68
2022-11-18T19:03:40.864Z,51.36
2022-11-18T19:09:17.659Z,51.27
2022-11-18T19:11:45.486Z,51.31
2022-11-18T19:14:17.169Z,50.99
2022-11-18T19:16:45.876Z,50.94
2022-11-18T19:19:18.989Z,51.21
2022-11-18T19:21:46.618Z,51.43
2022-11-18T19:24:42.425Z,51.10
2022-11-18T19:27:02.311Z,51.39
2022-11-18T19:29:29.735Z,51.39
2022-11-18T19:31:57.164Z,51.69
2022-11-18T19:34:24.364Z,51.91
2022-11-18T19:36:51.634Z,51.82
2022-11-18T19:39:19.486Z,51.67
2022-11-18T19:41:46.958Z,51.97
2022-11-18T19:44:14.177Z,51.94
2022-11-18T19:46:41.423Z,52.04
2022-11-18T19:49:09.933Z,51.82
2022-11-18T19:51:37.918Z,52.11
2022-11-18T19:54:05.946Z,51.84
2022-11-18T19:56:33.183Z,52.10
2022-11-18T19:59:00.381Z,52.05
2022-11-18T20:01:29.045Z,51.77
2022-11-18T20:03:59.270Z,51.82
2022-11-18T20:06:27.783Z,52.39
2022-11-18T20:08:55.576Z,52.30
2022-11-18T20:11:23.893Z,52.11
2022-11-18T20:13:51.598Z,52.32
2022-11-18T20:16:22.634Z,52.55
2022-11-18T20:19:07.798Z,52.48
2022-11-18T20:21:36.679Z,52.43
2022-11-18T20:24:05.892Z,52.24
2022-11-18T20:26:37.710Z,52.15
2022-11-18T20:29:07.048Z,52.27
2022-11-18T20:31:36.557Z,52.15
2022-11-18T20:34:05.452Z,52.27
2022-11-18T20:36:36.105Z,52.73
2022-11-18T20:39:13.156Z,52.94
2022-11-18T20:41:40.688Z,52.54
2022-11-18T20:44:07.964Z,52.66
2022-11-18T20:46:35.648Z,52.72
2022-11-18T20:49:03.003Z,52.80
2022-11-18T20:51:30.330Z,52.94
2022-11-18T20:53:58.552Z,52.84
2022-11-18T20:56:27.986Z,52.66
2022-11-18T20:58:57.178Z,52.81
2022-11-18T21:01:29.699Z,52.73
2022-11-18T21:04:02.082Z,52.95
2022-11-18T21:06:32.293Z,52.72
2022-11-18T21:09:03.327Z,52.76
2022-11-18T21:11:34.076Z,53.36
2022-11-18T21:14:01.515Z,53.32
2022-11-18T21:16:28.890Z,53.10
2022-11-18T21:18:56.365Z,52.97
2022-11-18T21:21:23.948Z,52.90
2022-11-18T21:23:58.696Z,53.28
2022-11-18T21:26:29.739Z,53.31
2022-11-18T21:29:00.162Z,53.44
2022-11-18T21:31:29.220Z,53.52
2022-11-18T21:33:57.694Z,53.71
2022-11-18T21:36:27.360Z,53.60
2022-11-18T21:38:57.424Z,53.41
2022-11-18T21:41:25.375Z,53.21
2022-11-18T21:44:07.938Z,53.33
2022-11-18T21:46:40.732Z,53.55
2022-11-18T21:49:08.896Z,53.30
2022-11-18T21:51:36.973Z,53.03
2022-11-18T21:54:04.728Z,53.14
2022-11-18T21:56:33.344Z,53.42
2022-11-18T21:59:02.079Z,53.77
2022-11-18T22:01:33.719Z,53.87
2022-11-18T22:04:04.581Z,53.38
2022-11-18T22:06:34.461Z,53.71
2022-11-18T22:09:04.164Z,53.49
2022-11-18T22:11:31.643Z,53.70
2022-11-18T22:13:58.756Z,53.80
2022-11-18T22:16:27.062Z,53.19
2022-11-18T22:19:01.468Z,53.18
2022-11-18T22:21:31.435Z,53.22
2022-11-18T22:24:01.040Z,53.52
2022-11-18T22:26:29.283Z,53.43
2022-11-18T22:28:58.191Z,53.61
2022-11-18T22:31:28.372Z,53.15
2022-11-18T22:33:56.722Z,53.75
2022-11-18T22:36:26.902Z,53.37
2022-11-18T22:38:55.552Z,53.47
2022-11-18T22:41:26.544Z,53.54
2022-11-18T22:43:53.640Z,53.60
2022-11-18T22:46:21.038Z,53.55
2022-11-18T22:48:48.301Z,53.85
2022-11-18T22:51:16.741Z,53.90
2022-11-18T22:53:44.128Z,53.70
2022-11-18T22:56:14.338Z,54.09
2022-11-18T22:58:43.454Z,54.23
2022-11-18T23:01:21.771Z,53.69
2022-11-18T23:03:58.749Z,53.84
2022-11-18T23:06:26.037Z,53.60
2022-11-18T23:08:56.822Z,53.95
2022-11-18T23:11:23.990Z,53.86
2022-11-18T23:13:51.285Z,53.70
2022-11-18T23:16:18.577Z,54.00
2022-11-18T23:18:47.463Z,54.01
2022-11-18T23:21:15.546Z,54.02
2022-11-18T23:23:42.944Z,53.77
2022-11-18T23:26:15.717Z,53.80
2022-11-18T23:28:43.509Z,54.05
2022-11-18T23:31:14.992Z,54.03
2022-11-18T23:33:43.433Z,54.09
2022-11-18T23:36:14.786Z,53.73
2022-11-18T23:38:42.637Z,54.27
2022-11-18T23:41:13.396Z,54.07
2022-11-18T23:43:41.547Z,53.93
2022-11-18T23:46:10.126Z,53.94
2022-11-18T23:48:40.375Z,54.40
2022-11-18T23:51:18.067Z,54.18
2022-11-18T23:53:47.715Z,54.24
2022-11-18T23:56:20.446Z,54.00
2022-11-18T23:58:50.664Z,53.90
